logo
Search for airport 
image banner adimage banner adimage banner ad
image banner ad

DNPS - Port Harcourt Shell Industrial Area (Phsia) Heliport

Located in Port-Harcourt, Nigeria

ICAO - , IATA -

Data provided by Airmate  

General information

Coordinates: N4°49'40" E7°1'58"
Elevation is 52 feet MSL.
 
View others Airports in Rivers

Operational data

Special qualification required
Current time UTC:
Current local time:
Weather at : DNPO - Port Harcourt ( 23 km )
METAR: DNPO 170400Z 05004KT 7000 SCT008 25/24 Q1008 TEMPO 5000 BR
View NOTAMs / SUP AIP / TFR affecting this airport [VIEW]
Communications frequencies: [VIEW]

Runways:

Airport contact information

Address: Port-Harcourt Nigeria

Satellite view of DNPS